ADDS METAR Data INFO
IDs: Format: Raw Decoded Include TAF

Data at: 0925 UTC 17 Oct 2017

K4V0 170915Z AUTO 07003KT 10SM CLR M03/M07 A3038 RMK AO2 T10281066
K4V0 170855Z AUTO 11003KT 10SM CLR M01/M06 A3038 RMK AO2 T10121063
K4V0 170835Z AUTO 10004KT 10SM CLR M01/M07 A3038 RMK AO2 T10111071
K4V0 170815Z AUTO 09003KT 10SM CLR M01/M06 A3037 RMK AO2 T10081065
K4V0 170755Z AUTO 00000KT 10SM CLR M02/M06 A3037 RMK AO2 T10231059
K4V0 170735Z AUTO 11004KT 10SM CLR 00/M06 A3038 RMK AO2 T10011065
K4V0 170715Z AUTO 07006KT 10SM CLR 00/M05 A3038 RMK AO2 T10041055
K4V0 170655Z AUTO 09003KT 10SM CLR 00/M07 A3038 RMK AO2 T10041067 401891069
K4V0 170635Z AUTO 08003KT 10SM CLR M01/M06 A3037 RMK AO2 T10131063
K4V0 170615Z AUTO 06003KT 10SM CLR M01/M06 A3036 RMK AO2 T10071064
K4V0 170555Z AUTO 00000KT 10SM CLR 00/M06 A3036 RMK AO2 T10021059 10180 21011
K4V0 170535Z AUTO 06003KT 10SM CLR 00/M05 A3036 RMK AO2 T10031051
K4V0 170515Z AUTO 00000KT 10SM CLR 00/M05 A3036 RMK AO2 T10041049
K4V0 170455Z AUTO 00000KT 10SM CLR 00/M05 A3036 RMK AO2 T10011055
K4V0 170435Z AUTO 00000KT 10SM CLR 01/M05 A3035 RMK AO2 T00091054
K4V0 170415Z AUTO 08004KT 10SM CLR 01/M05 A3035 RMK AO2 T00081051
K4V0 170355Z AUTO 00000KT 10SM CLR 01/M04 A3035 RMK AO2 T00051042
K4V0 170335Z AUTO 00000KT 10SM CLR 01/M05 A3034 RMK AO2 T00131046
K4V0 170315Z AUTO 06003KT 10SM CLR 02/M05 A3034 RMK AO2 T00171047
K4V0 170255Z AUTO 00000KT 10SM CLR 02/M04 A3034 RMK AO2 T00231042
K4V0 170235Z AUTO 00000KT 10SM CLR 03/M04 A3033 RMK AO2 T00311043
K4V0 170215Z AUTO 00000KT 10SM CLR 04/M05 A3033 RMK AO2 T00441047
K4V0 170155Z AUTO 00000KT 10SM CLR 05/M04 A3032 RMK AO2 T00491043
K4V0 170135Z AUTO 14003KT 10SM CLR 04/M04 A3032 RMK AO2 T00361042
K4V0 170115Z AUTO 00000KT 10SM CLR 05/M04 A3031 RMK AO2 T00501045
K4V0 170055Z AUTO 11004KT 10SM CLR 09/M05 A3031 RMK AO2 T00861052
K4V0 170035Z AUTO 00000KT 10SM CLR 11/M06 A3031 RMK AO2 T01111061
K4V0 170015Z AUTO 00000KT 10SM CLR 16/M06 A3031 RMK AO2 T01581065
K4V0 162355Z AUTO 00000KT 10SM CLR 18/M10 A3031 RMK AO2 T01801101 10189 20092
K4V0 162335Z AUTO 00000KT 10SM CLR 18/M10 A3031 RMK AO2 T01821098
K4V0 162315Z AUTO 00000KT 10SM CLR 19/M10 A3032 RMK AO2 T01861100
K4V0 162255Z AUTO 00000KT 10SM CLR 19/M10 A3033 RMK AO2 T01891100
K4V0 162235Z AUTO 24003KT 10SM CLR 19/M09 A3033 RMK AO2 T01861094
K4V0 162215Z AUTO 26003KT 10SM CLR 19/M09 A3034 RMK AO2 T01861092
K4V0 162155Z AUTO 28003KT 10SM CLR 18/M08 A3034 RMK AO2 T01791083
K4V0 162135Z AUTO 00000KT 10SM CLR 18/M08 A3034 RMK AO2 T01751081
K4V0 162115Z AUTO 27003KT 10SM CLR 17/M08 A3035 RMK AO2 T01721083
K4V0 162055Z AUTO 26004KT 10SM CLR 17/M08 A3035 RMK AO2 T01651082
K4V0 162035Z AUTO 24004KT 10SM CLR 16/M07 A3037 RMK AO2 T01561073
K4V0 162015Z AUTO 00000KT 10SM CLR 15/M07 A3038 RMK AO2 T01521075
K4V0 161955Z AUTO 00000KT 10SM CLR 15/M07 A3039 RMK AO2 T01461073
K4V0 161935Z AUTO 00000KT 10SM CLR 14/M07 A3041 RMK AO2 T01431070
K4V0 161915Z AUTO 25003KT 3/4SM HZ VV005 13/M07 A3042 RMK AO2 VIS M1/4V5 T01321070
K4V0 161855Z AUTO 24004KT 10SM CLR 12/M07 A3044 RMK AO2 T01241071
K4V0 161835Z AUTO 31003KT 10SM CLR 12/M07 A3045 RMK AO2 T01151074
K4V0 161815Z AUTO 27003KT 10SM CLR 10/M08 A3045 RMK AO2 T00991080
K4V0 161755Z AUTO 30003KT 10SM CLR 09/M06 A3046 RMK AO2 T00921063 10092 21069
K4V0 161735Z AUTO 00000KT 10SM CLR 08/M06 A3047 RMK AO2 T00771062
K4V0 161715Z AUTO 00000KT 10SM CLR 07/M06 A3047 RMK AO2 T00651056
K4V0 161655Z AUTO 00000KT 10SM CLR 05/M06 A3048 RMK AO2 T00521057
K4V0 161635Z AUTO 00000KT 10SM CLR 03/M06 A3048 RMK AO2 T00331065
K4V0 161615Z AUTO 00000KT 10SM CLR 02/M06 A3049 RMK AO2 T00201065
K4V0 161555Z AUTO 00000KT 10SM CLR 01/M06 A3049 RMK AO2 T00131057
K4V0 161535Z AUTO 00000KT 10SM CLR 00/M05 A3049 RMK AO2 T00001054
K4V0 161515Z AUTO 00000KT 10SM CLR M01/M05 A3049 RMK AO2 T10101053
K4V0 161455Z AUTO 00000KT 10SM CLR M03/M06 A3049 RMK AO2 T10261060
K4V0 161435Z AUTO 00000KT 10SM CLR M04/M06 A3049 RMK AO2 T10401061
K4V0 161415Z AUTO 00000KT 10SM CLR M05/M07 A3048 RMK AO2 T10531072
K4V0 161355Z AUTO 00000KT 10SM CLR M07/M09 A3047 RMK AO2 T10691089
K4V0 161335Z AUTO 10003KT 10SM CLR M06/M08 A3048 RMK AO2 T10601084
K4V0 161315Z AUTO 07003KT 10SM CLR M07/M09 A3048 RMK AO2 T10681091
K4V0 161255Z AUTO 00000KT 10SM CLR M06/M09 A3048 RMK AO2 T10581090
K4V0 161235Z AUTO 08004KT 10SM CLR M05/M08 A3048 RMK AO2 T10481078
K4V0 161215Z AUTO 11004KT 10SM CLR M06/M09 A3048 RMK AO2 T10571088
K4V0 161155Z AUTO 00000KT 10SM CLR M06/M08 A3047 RMK AO2 T10571083 11017 21059
K4V0 161135Z AUTO 00000KT 10SM CLR M05/M08 A3047 RMK AO2 T10531084
K4V0 161115Z AUTO 08004KT 10SM CLR M05/M08 A3048 RMK AO2 T10501081
K4V0 161055Z AUTO 09003KT 10SM CLR M05/M08 A3048 RMK AO2 T10511081
K4V0 161035Z AUTO 00000KT 10SM CLR M04/M08 A3048 RMK AO2 T10441083
K4V0 161015Z AUTO 00000KT 10SM CLR M06/M09 A3047 RMK AO2 T10571088
K4V0 160955Z AUTO 00000KT 10SM CLR M05/M08 A3047 RMK AO2 T10551083
K4V0 160935Z AUTO 00000KT 10SM CLR M04/M08 A3047 RMK AO2 T10441083
K4V0 160915Z AUTO 00000KT 10SM CLR M05/M08 A3047 RMK AO2 T10491079
K4V0 160855Z AUTO 00000KT 10SM CLR M03/M08 A3047 RMK AO2 T10301076
K4V0 160835Z AUTO 00000KT 10SM CLR M04/M08 A3046 RMK AO2 T10371077
K4V0 160815Z AUTO 00000KT 10SM CLR M04/M08 A3047 RMK AO2 T10401080
K4V0 160755Z AUTO 00000KT 10SM CLR M02/M07 A3047 RMK AO2 T10251073
K4V0 160735Z AUTO 00000KT 10SM CLR M04/M07 A3047 RMK AO2 T10411073
K4V0 160715Z AUTO 00000KT 10SM CLR M03/M06 A3046 RMK AO2 T10291061
K4V0 160655Z AUTO 00000KT 10SM CLR M02/M07 A3046 RMK AO2 T10221074 401581061
K4V0 160635Z AUTO 08004KT 10SM CLR M03/M07 A3047 RMK AO2 T10271066
K4V0 160615Z AUTO 00000KT 10SM CLR M03/M07 A3046 RMK AO2 T10261073
K4V0 160555Z AUTO 00000KT 10SM CLR M02/M07 A3046 RMK AO2 T10231067 10148 21025
K4V0 160535Z AUTO 00000KT 10SM CLR M02/M06 A3047 RMK AO2 T10211064
K4V0 160515Z AUTO 00000KT 10SM CLR M02/M07 A3047 RMK AO2 T10181066
K4V0 160455Z AUTO 00000KT 10SM CLR M01/M07 A3047 RMK AO2 T10091070
K4V0 160435Z AUTO 00000KT 10SM CLR M01/M06 A3047 RMK AO2 T10091063
K4V0 160415Z AUTO 00000KT 10SM CLR 00/M07 A3046 RMK AO2 T00041073
K4V0 160355Z AUTO 00000KT 10SM CLR 00/M07 A3046 RMK AO2 T10051066
K4V0 160335Z AUTO 00000KT 10SM CLR 00/M07 A3046 RMK AO2 T00001066
K4V0 160315Z AUTO 00000KT 10SM CLR 02/M06 A3046 RMK AO2 T00161065
K4V0 160255Z AUTO 00000KT 10SM CLR 01/M05 A3046 RMK AO2 T00121051
K4V0 160235Z AUTO 00000KT 10SM CLR 02/M06 A3046 RMK AO2 T00201057
K4V0 160215Z AUTO 00000KT 10SM CLR 02/M06 A3045 RMK AO2 T00221056
K4V0 160155Z AUTO 06003KT 10SM CLR 04/M06 A3044 RMK AO2 T00381060
K4V0 160135Z AUTO 06004KT 10SM CLR 04/M06 A3044 RMK AO2 T00401061
K4V0 160115Z AUTO 00000KT 10SM CLR 07/M08 A3043 RMK AO2 T00741084
K4V0 160055Z AUTO 00000KT 10SM CLR 10/M09 A3043 RMK AO2 T00951086
K4V0 160035Z AUTO 23003KT 10SM CLR 11/M09 A3042 RMK AO2 T01121095
K4V0 160015Z AUTO 00000KT 10SM CLR 14/M10 A3042 RMK AO2 T01381105
K4V0 152355Z AUTO 00000KT 10SM CLR 15/M11 A3043 RMK AO2 T01491112 10158 20072
K4V0 152335Z AUTO 00000KT 10SM CLR 15/M10 A3043 RMK AO2 T01521104
K4V0 152315Z AUTO 00000KT 10SM CLR 15/M11 A3043 RMK AO2 T01511108
K4V0 152255Z AUTO 00000KT 10SM CLR 16/M11 A3044 RMK AO2 T01551110
K4V0 152235Z AUTO 00000KT 10SM CLR 15/M11 A3044 RMK AO2 T01511106
K4V0 152215Z AUTO 25004KT 10SM CLR 16/M10 A3045 RMK AO2 T01581100
K4V0 152155Z AUTO 00000KT 10SM CLR 15/M11 A3045 RMK AO2 T01511107
K4V0 152135Z AUTO 25004KT 10SM CLR 15/M10 A3046 RMK AO2 T01471100